sensor_id;sensor_type;location;lat;lon;timestamp;P1;durP1;ratioP1;P2;durP2;ratioP2
21110;SDS011;10713;51.912;4.494;2023-07-30T00:01:11;12.68;;;2.72;;
21110;SDS011;10713;51.912;4.494;2023-07-30T00:03:36;10.35;;;2.33;;
21110;SDS011;10713;51.912;4.494;2023-07-30T00:06:02;6.88;;;1.85;;
21110;SDS011;10713;51.912;4.494;2023-07-30T00:08:27;9.82;;;1.92;;
21110;SDS011;10713;51.912;4.494;2023-07-30T00:10:52;12.35;;;2.08;;
21110;SDS011;10713;51.912;4.494;2023-07-30T00:13:18;4.38;;;1.77;;
21110;SDS011;10713;51.912;4.494;2023-07-30T00:15:45;15.43;;;2.20;;
21110;SDS011;10713;51.912;4.494;2023-07-30T00:18:11;4.57;;;1.95;;
21110;SDS011;10713;51.912;4.494;2023-07-30T00:20:37;9.10;;;1.70;;
21110;SDS011;10713;51.912;4.494;2023-07-30T00:23:02;8.52;;;1.95;;
21110;SDS011;10713;51.912;4.494;2023-07-30T00:25:28;7.63;;;1.80;;
21110;SDS011;10713;51.912;4.494;2023-07-30T00:27:53;9.23;;;1.70;;
21110;SDS011;10713;51.912;4.494;2023-07-30T00:30:18;6.35;;;1.85;;
21110;SDS011;10713;51.912;4.494;2023-07-30T00:32:43;9.18;;;1.80;;
21110;SDS011;10713;51.912;4.494;2023-07-30T00:35:09;12.30;;;1.98;;
21110;SDS011;10713;51.912;4.494;2023-07-30T00:37:35;6.28;;;1.60;;
21110;SDS011;10713;51.912;4.494;2023-07-30T00:40:01;5.53;;;1.55;;
21110;SDS011;10713;51.912;4.494;2023-07-30T00:42:28;11.75;;;1.92;;
21110;SDS011;10713;51.912;4.494;2023-07-30T00:44:53;8.85;;;1.95;;
21110;SDS011;10713;51.912;4.494;2023-07-30T00:47:19;16.48;;;2.45;;
21110;SDS011;10713;51.912;4.494;2023-07-30T00:49:45;11.50;;;2.35;;
21110;SDS011;10713;51.912;4.494;2023-07-30T00:52:11;9.52;;;2.35;;
21110;SDS011;10713;51.912;4.494;2023-07-30T00:54:36;9.38;;;2.15;;
21110;SDS011;10713;51.912;4.494;2023-07-30T00:57:02;11.00;;;2.63;;
21110;SDS011;10713;51.912;4.494;2023-07-30T00:59:28;10.10;;;2.25;;
21110;SDS011;10713;51.912;4.494;2023-07-30T01:01:53;14.98;;;2.35;;
21110;SDS011;10713;51.912;4.494;2023-07-30T01:04:21;9.95;;;2.15;;
21110;SDS011;10713;51.912;4.494;2023-07-30T01:06:46;9.10;;;2.13;;
21110;SDS011;10713;51.912;4.494;2023-07-30T01:09:11;9.50;;;2.88;;
21110;SDS011;10713;51.912;4.494;2023-07-30T01:11:37;14.35;;;2.80;;
21110;SDS011;10713;51.912;4.494;2023-07-30T01:14:04;6.93;;;2.13;;
21110;SDS011;10713;51.912;4.494;2023-07-30T01:16:30;10.27;;;1.85;;
21110;SDS011;10713;51.912;4.494;2023-07-30T01:18:56;8.60;;;2.45;;
21110;SDS011;10713;51.912;4.494;2023-07-30T01:21:24;5.47;;;1.92;;
21110;SDS011;10713;51.912;4.494;2023-07-30T01:23:49;13.90;;;3.03;;
21110;SDS011;10713;51.912;4.494;2023-07-30T01:26:22;12.02;;;2.30;;
21110;SDS011;10713;51.912;4.494;2023-07-30T01:28:53;11.98;;;2.20;;
21110;SDS011;10713;51.912;4.494;2023-07-30T01:31:21;8.45;;;2.25;;
21110;SDS011;10713;51.912;4.494;2023-07-30T01:33:51;22.08;;;2.80;;
21110;SDS011;10713;51.912;4.494;2023-07-30T01:36:19;15.43;;;2.83;;
21110;SDS011;10713;51.912;4.494;2023-07-30T01:38:45;7.30;;;1.77;;
21110;SDS011;10713;51.912;4.494;2023-07-30T01:41:13;12.68;;;3.20;;
21110;SDS011;10713;51.912;4.494;2023-07-30T01:43:38;13.50;;;2.45;;
21110;SDS011;10713;51.912;4.494;2023-07-30T01:46:03;22.17;;;3.47;;
21110;SDS011;10713;51.912;4.494;2023-07-30T01:48:29;20.85;;;3.22;;
21110;SDS011;10713;51.912;4.494;2023-07-30T01:50:54;11.82;;;2.95;;
21110;SDS011;10713;51.912;4.494;2023-07-30T01:53:19;12.57;;;2.50;;
21110;SDS011;10713;51.912;4.494;2023-07-30T01:55:45;16.05;;;2.60;;
21110;SDS011;10713;51.912;4.494;2023-07-30T01:58:11;13.48;;;2.95;;
21110;SDS011;10713;51.912;4.494;2023-07-30T02:00:40;12.55;;;2.45;;
21110;SDS011;10713;51.912;4.494;2023-07-30T02:03:05;13.45;;;2.80;;
21110;SDS011;10713;51.912;4.494;2023-07-30T02:05:31;14.57;;;2.83;;
21110;SDS011;10713;51.912;4.494;2023-07-30T02:07:57;11.00;;;2.25;;
21110;SDS011;10713;51.912;4.494;2023-07-30T02:10:23;16.52;;;2.90;;
21110;SDS011;10713;51.912;4.494;2023-07-30T02:12:52;15.82;;;2.42;;
21110;SDS011;10713;51.912;4.494;2023-07-30T02:15:17;22.10;;;2.95;;
21110;SDS011;10713;51.912;4.494;2023-07-30T02:17:42;15.02;;;2.67;;
21110;SDS011;10713;51.912;4.494;2023-07-30T02:20:08;13.93;;;2.67;;
21110;SDS011;10713;51.912;4.494;2023-07-30T02:22:34;11.82;;;2.80;;
21110;SDS011;10713;51.912;4.494;2023-07-30T02:24:59;10.00;;;2.40;;
21110;SDS011;10713;51.912;4.494;2023-07-30T02:27:25;21.50;;;3.08;;
21110;SDS011;10713;51.912;4.494;2023-07-30T02:29:50;15.32;;;2.80;;
21110;SDS011;10713;51.912;4.494;2023-07-30T02:32:15;18.33;;;2.88;;
21110;SDS011;10713;51.912;4.494;2023-07-30T02:34:41;20.20;;;3.22;;
21110;SDS011;10713;51.912;4.494;2023-07-30T02:37:06;12.38;;;2.75;;
21110;SDS011;10713;51.912;4.494;2023-07-30T02:39:31;11.13;;;2.88;;
21110;SDS011;10713;51.912;4.494;2023-07-30T02:41:56;19.75;;;4.15;;
21110;SDS011;10713;51.912;4.494;2023-07-30T02:44:22;21.77;;;2.70;;
21110;SDS011;10713;51.912;4.494;2023-07-30T02:46:47;17.95;;;3.00;;
21110;SDS011;10713;51.912;4.494;2023-07-30T02:49:12;18.83;;;3.42;;
21110;SDS011;10713;51.912;4.494;2023-07-30T02:51:38;17.83;;;3.35;;
21110;SDS011;10713;51.912;4.494;2023-07-30T02:54:04;22.90;;;3.10;;
21110;SDS011;10713;51.912;4.494;2023-07-30T02:56:30;13.43;;;3.20;;
21110;SDS011;10713;51.912;4.494;2023-07-30T02:58:56;21.88;;;3.17;;
21110;SDS011;10713;51.912;4.494;2023-07-30T03:01:23;9.82;;;2.70;;
21110;SDS011;10713;51.912;4.494;2023-07-30T03:03:48;15.00;;;3.95;;
21110;SDS011;10713;51.912;4.494;2023-07-30T03:06:14;13.02;;;2.85;;
21110;SDS011;10713;51.912;4.494;2023-07-30T03:08:41;12.20;;;2.47;;
21110;SDS011;10713;51.912;4.494;2023-07-30T03:11:07;19.40;;;2.75;;
21110;SDS011;10713;51.912;4.494;2023-07-30T03:13:32;18.17;;;2.60;;
21110;SDS011;10713;51.912;4.494;2023-07-30T03:15:57;9.85;;;2.60;;
21110;SDS011;10713;51.912;4.494;2023-07-30T03:18:23;16.77;;;3.38;;
21110;SDS011;10713;51.912;4.494;2023-07-30T03:20:48;22.90;;;3.00;;
21110;SDS011;10713;51.912;4.494;2023-07-30T03:23:14;15.60;;;3.20;;
21110;SDS011;10713;51.912;4.494;2023-07-30T03:25:40;16.13;;;2.70;;
21110;SDS011;10713;51.912;4.494;2023-07-30T03:28:05;16.92;;;2.80;;
21110;SDS011;10713;51.912;4.494;2023-07-30T03:30:30;13.23;;;2.72;;
21110;SDS011;10713;51.912;4.494;2023-07-30T03:32:56;9.38;;;2.13;;
21110;SDS011;10713;51.912;4.494;2023-07-30T03:35:21;18.08;;;3.20;;
21110;SDS011;10713;51.912;4.494;2023-07-30T03:37:46;18.45;;;2.00;;
21110;SDS011;10713;51.912;4.494;2023-07-30T03:40:12;18.60;;;2.65;;
21110;SDS011;10713;51.912;4.494;2023-07-30T03:42:37;16.17;;;2.70;;
21110;SDS011;10713;51.912;4.494;2023-07-30T03:45:03;25.40;;;3.38;;
21110;SDS011;10713;51.912;4.494;2023-07-30T03:47:28;13.07;;;3.00;;
21110;SDS011;10713;51.912;4.494;2023-07-30T03:49:54;14.27;;;2.80;;
21110;SDS011;10713;51.912;4.494;2023-07-30T03:52:19;8.82;;;2.58;;
21110;SDS011;10713;51.912;4.494;2023-07-30T03:54:44;17.50;;;2.90;;
21110;SDS011;10713;51.912;4.494;2023-07-30T03:57:10;8.93;;;2.63;;
21110;SDS011;10713;51.912;4.494;2023-07-30T03:59:35;11.18;;;2.85;;
21110;SDS011;10713;51.912;4.494;2023-07-30T04:02:00;13.02;;;2.80;;
21110;SDS011;10713;51.912;4.494;2023-07-30T04:04:26;13.82;;;2.72;;
21110;SDS011;10713;51.912;4.494;2023-07-30T04:06:51;20.38;;;3.15;;
21110;SDS011;10713;51.912;4.494;2023-07-30T04:09:16;14.10;;;3.22;;
21110;SDS011;10713;51.912;4.494;2023-07-30T04:11:42;26.20;;;3.28;;
21110;SDS011;10713;51.912;4.494;2023-07-30T04:14:07;16.42;;;2.97;;
21110;SDS011;10713;51.912;4.494;2023-07-30T04:16:34;9.85;;;2.80;;
21110;SDS011;10713;51.912;4.494;2023-07-30T04:18:59;15.00;;;3.28;;
21110;SDS011;10713;51.912;4.494;2023-07-30T04:21:24;9.85;;;2.70;;
21110;SDS011;10713;51.912;4.494;2023-07-30T04:23:50;19.63;;;2.67;;
21110;SDS011;10713;51.912;4.494;2023-07-30T04:26:16;19.83;;;2.70;;
21110;SDS011;10713;51.912;4.494;2023-07-30T04:28:41;13.23;;;2.95;;
21110;SDS011;10713;51.912;4.494;2023-07-30T04:31:06;18.67;;;2.88;;
21110;SDS011;10713;51.912;4.494;2023-07-30T04:33:32;15.02;;;2.45;;
21110;SDS011;10713;51.912;4.494;2023-07-30T04:35:57;13.93;;;3.00;;
21110;SDS011;10713;51.912;4.494;2023-07-30T04:38:22;10.70;;;2.25;;
21110;SDS011;10713;51.912;4.494;2023-07-30T04:40:48;25.25;;;3.63;;
21110;SDS011;10713;51.912;4.494;2023-07-30T04:43:13;18.38;;;3.13;;
21110;SDS011;10713;51.912;4.494;2023-07-30T04:45:39;16.77;;;2.90;;
21110;SDS011;10713;51.912;4.494;2023-07-30T04:48:04;15.02;;;2.50;;
21110;SDS011;10713;51.912;4.494;2023-07-30T04:50:30;11.95;;;2.58;;
21110;SDS011;10713;51.912;4.494;2023-07-30T04:52:55;17.30;;;3.03;;
21110;SDS011;10713;51.912;4.494;2023-07-30T04:55:21;14.77;;;2.95;;
21110;SDS011;10713;51.912;4.494;2023-07-30T04:57:46;13.95;;;2.38;;
21110;SDS011;10713;51.912;4.494;2023-07-30T05:00:11;20.00;;;2.38;;
21110;SDS011;10713;51.912;4.494;2023-07-30T05:02:37;18.45;;;3.08;;
21110;SDS011;10713;51.912;4.494;2023-07-30T05:05:02;22.45;;;2.70;;
21110;SDS011;10713;51.912;4.494;2023-07-30T05:07:28;14.20;;;2.58;;
21110;SDS011;10713;51.912;4.494;2023-07-30T05:09:53;13.75;;;2.85;;
21110;SDS011;10713;51.912;4.494;2023-07-30T05:12:18;18.10;;;3.20;;
21110;SDS011;10713;51.912;4.494;2023-07-30T05:14:44;14.73;;;2.85;;
21110;SDS011;10713;51.912;4.494;2023-07-30T05:17:09;17.50;;;3.10;;
21110;SDS011;10713;51.912;4.494;2023-07-30T05:19:34;16.17;;;3.05;;
21110;SDS011;10713;51.912;4.494;2023-07-30T05:22:00;24.33;;;2.95;;
21110;SDS011;10713;51.912;4.494;2023-07-30T05:24:26;14.25;;;2.75;;
21110;SDS011;10713;51.912;4.494;2023-07-30T05:26:52;15.00;;;2.90;;
21110;SDS011;10713;51.912;4.494;2023-07-30T05:29:17;18.45;;;2.92;;
21110;SDS011;10713;51.912;4.494;2023-07-30T05:31:43;11.63;;;2.80;;
21110;SDS011;10713;51.912;4.494;2023-07-30T05:34:08;22.95;;;3.72;;
21110;SDS011;10713;51.912;4.494;2023-07-30T05:36:33;11.40;;;2.60;;
21110;SDS011;10713;51.912;4.494;2023-07-30T05:38:59;14.77;;;3.20;;
21110;SDS011;10713;51.912;4.494;2023-07-30T05:41:24;13.18;;;2.78;;
21110;SDS011;10713;51.912;4.494;2023-07-30T05:43:49;17.75;;;2.85;;
21110;SDS011;10713;51.912;4.494;2023-07-30T05:46:15;19.42;;;2.28;;
21110;SDS011;10713;51.912;4.494;2023-07-30T05:48:40;16.33;;;2.33;;
21110;SDS011;10713;51.912;4.494;2023-07-30T05:51:05;13.90;;;2.65;;
21110;SDS011;10713;51.912;4.494;2023-07-30T05:53:31;14.52;;;2.47;;
21110;SDS011;10713;51.912;4.494;2023-07-30T05:55:56;21.17;;;3.50;;
21110;SDS011;10713;51.912;4.494;2023-07-30T05:58:21;20.92;;;2.72;;
21110;SDS011;10713;51.912;4.494;2023-07-30T06:00:47;15.63;;;2.80;;
21110;SDS011;10713;51.912;4.494;2023-07-30T06:03:12;14.18;;;2.50;;
21110;SDS011;10713;51.912;4.494;2023-07-30T06:05:41;16.83;;;2.72;;
21110;SDS011;10713;51.912;4.494;2023-07-30T06:08:07;9.25;;;1.70;;
21110;SDS011;10713;51.912;4.494;2023-07-30T06:10:36;12.02;;;2.00;;
21110;SDS011;10713;51.912;4.494;2023-07-30T06:13:03;13.10;;;2.38;;
21110;SDS011;10713;51.912;4.494;2023-07-30T06:15:29;20.70;;;2.45;;
21110;SDS011;10713;51.912;4.494;2023-07-30T06:17:55;11.05;;;1.77;;
21110;SDS011;10713;51.912;4.494;2023-07-30T06:20:21;17.13;;;2.65;;
21110;SDS011;10713;51.912;4.494;2023-07-30T06:22:46;16.00;;;2.28;;
21110;SDS011;10713;51.912;4.494;2023-07-30T06:25:11;12.57;;;2.42;;
21110;SDS011;10713;51.912;4.494;2023-07-30T06:27:37;17.67;;;2.38;;
21110;SDS011;10713;51.912;4.494;2023-07-30T06:30:02;24.98;;;2.55;;
21110;SDS011;10713;51.912;4.494;2023-07-30T06:32:28;12.63;;;2.88;;
21110;SDS011;10713;51.912;4.494;2023-07-30T06:34:53;14.60;;;2.28;;
21110;SDS011;10713;51.912;4.494;2023-07-30T06:37:18;11.57;;;2.38;;
21110;SDS011;10713;51.912;4.494;2023-07-30T06:39:44;6.50;;;1.88;;
21110;SDS011;10713;51.912;4.494;2023-07-30T06:42:09;14.43;;;2.22;;
21110;SDS011;10713;51.912;4.494;2023-07-30T06:44:35;8.73;;;1.75;;
21110;SDS011;10713;51.912;4.494;2023-07-30T06:47:00;15.48;;;2.10;;
21110;SDS011;10713;51.912;4.494;2023-07-30T06:49:26;16.45;;;2.90;;
21110;SDS011;10713;51.912;4.494;2023-07-30T06:51:51;7.57;;;2.17;;
21110;SDS011;10713;51.912;4.494;2023-07-30T06:54:17;13.98;;;2.03;;
21110;SDS011;10713;51.912;4.494;2023-07-30T06:56:42;11.55;;;2.45;;
21110;SDS011;10713;51.912;4.494;2023-07-30T06:59:07;11.48;;;2.80;;
21110;SDS011;10713;51.912;4.494;2023-07-30T07:01:33;12.23;;;2.22;;
21110;SDS011;10713;51.912;4.494;2023-07-30T07:03:58;13.43;;;2.45;;
21110;SDS011;10713;51.912;4.494;2023-07-30T07:06:23;10.77;;;2.35;;
21110;SDS011;10713;51.912;4.494;2023-07-30T07:08:49;24.23;;;4.60;;
21110;SDS011;10713;51.912;4.494;2023-07-30T07:11:14;10.48;;;2.35;;
21110;SDS011;10713;51.912;4.494;2023-07-30T07:13:39;12.23;;;2.22;;
21110;SDS011;10713;51.912;4.494;2023-07-30T07:16:05;8.20;;;2.60;;
21110;SDS011;10713;51.912;4.494;2023-07-30T07:18:30;12.90;;;2.35;;
21110;SDS011;10713;51.912;4.494;2023-07-30T07:20:55;11.73;;;2.20;;
21110;SDS011;10713;51.912;4.494;2023-07-30T07:23:21;14.55;;;2.35;;
21110;SDS011;10713;51.912;4.494;2023-07-30T07:25:46;13.30;;;2.95;;
21110;SDS011;10713;51.912;4.494;2023-07-30T07:28:11;14.43;;;1.95;;
21110;SDS011;10713;51.912;4.494;2023-07-30T07:30:37;15.77;;;2.80;;
21110;SDS011;10713;51.912;4.494;2023-07-30T07:33:02;14.23;;;2.65;;
21110;SDS011;10713;51.912;4.494;2023-07-30T07:35:28;16.17;;;2.55;;
21110;SDS011;10713;51.912;4.494;2023-07-30T07:37:53;8.15;;;2.40;;
21110;SDS011;10713;51.912;4.494;2023-07-30T07:40:19;7.63;;;2.30;;
21110;SDS011;10713;51.912;4.494;2023-07-30T07:42:44;11.02;;;2.28;;
21110;SDS011;10713;51.912;4.494;2023-07-30T07:45:09;8.80;;;2.13;;
21110;SDS011;10713;51.912;4.494;2023-07-30T07:47:35;14.25;;;2.58;;
21110;SDS011;10713;51.912;4.494;2023-07-30T07:50:00;11.23;;;2.65;;
21110;SDS011;10713;51.912;4.494;2023-07-30T07:52:25;12.88;;;3.03;;
21110;SDS011;10713;51.912;4.494;2023-07-30T07:54:51;12.55;;;2.63;;
21110;SDS011;10713;51.912;4.494;2023-07-30T07:57:16;14.30;;;2.80;;
21110;SDS011;10713;51.912;4.494;2023-07-30T07:59:41;9.02;;;1.77;;
21110;SDS011;10713;51.912;4.494;2023-07-30T08:02:10;13.45;;;2.20;;
21110;SDS011;10713;51.912;4.494;2023-07-30T08:04:35;8.25;;;2.13;;
21110;SDS011;10713;51.912;4.494;2023-07-30T08:07:01;8.97;;;2.13;;
21110;SDS011;10713;51.912;4.494;2023-07-30T08:09:28;11.93;;;2.40;;
21110;SDS011;10713;51.912;4.494;2023-07-30T08:11:54;8.80;;;2.10;;
21110;SDS011;10713;51.912;4.494;2023-07-30T08:14:19;6.20;;;2.25;;
21110;SDS011;10713;51.912;4.494;2023-07-30T08:16:45;16.60;;;2.38;;
21110;SDS011;10713;51.912;4.494;2023-07-30T08:19:10;6.10;;;1.85;;
21110;SDS011;10713;51.912;4.494;2023-07-30T08:21:36;7.20;;;1.55;;
21110;SDS011;10713;51.912;4.494;2023-07-30T08:24:02;9.32;;;1.73;;
21110;SDS011;10713;51.912;4.494;2023-07-30T08:26:27;10.70;;;1.58;;
21110;SDS011;10713;51.912;4.494;2023-07-30T08:28:53;5.80;;;1.80;;
21110;SDS011;10713;51.912;4.494;2023-07-30T08:31:18;5.93;;;1.83;;
21110;SDS011;10713;51.912;4.494;2023-07-30T08:33:43;6.53;;;1.33;;
21110;SDS011;10713;51.912;4.494;2023-07-30T08:36:09;4.55;;;1.52;;
21110;SDS011;10713;51.912;4.494;2023-07-30T08:38:34;10.10;;;1.27;;
21110;SDS011;10713;51.912;4.494;2023-07-30T08:41:00;7.15;;;1.48;;
21110;SDS011;10713;51.912;4.494;2023-07-30T08:43:25;7.60;;;1.20;;
21110;SDS011;10713;51.912;4.494;2023-07-30T08:45:50;7.40;;;1.25;;
21110;SDS011;10713;51.912;4.494;2023-07-30T08:48:16;7.35;;;1.42;;
21110;SDS011;10713;51.912;4.494;2023-07-30T08:50:41;15.40;;;1.98;;
21110;SDS011;10713;51.912;4.494;2023-07-30T08:53:07;6.57;;;1.35;;
21110;SDS011;10713;51.912;4.494;2023-07-30T08:55:33;8.20;;;1.63;;
21110;SDS011;10713;51.912;4.494;2023-07-30T08:58:02;11.90;;;1.60;;
21110;SDS011;10713;51.912;4.494;2023-07-30T09:00:30;5.57;;;1.48;;
21110;SDS011;10713;51.912;4.494;2023-07-30T09:02:59;5.20;;;1.50;;
21110;SDS011;10713;51.912;4.494;2023-07-30T09:05:25;6.97;;;1.38;;
21110;SDS011;10713;51.912;4.494;2023-07-30T09:07:54;10.18;;;1.70;;
21110;SDS011;10713;51.912;4.494;2023-07-30T09:10:20;11.90;;;1.20;;
21110;SDS011;10713;51.912;4.494;2023-07-30T09:12:46;6.07;;;1.73;;
21110;SDS011;10713;51.912;4.494;2023-07-30T09:15:28;7.80;;;2.05;;
21110;SDS011;10713;51.912;4.494;2023-07-30T09:17:59;6.05;;;1.20;;
21110;SDS011;10713;51.912;4.494;2023-07-30T09:20:27;7.07;;;1.52;;
21110;SDS011;10713;51.912;4.494;2023-07-30T09:22:55;7.22;;;1.42;;
21110;SDS011;10713;51.912;4.494;2023-07-30T09:25:21;9.20;;;1.60;;
21110;SDS011;10713;51.912;4.494;2023-07-30T09:27:47;7.95;;;1.65;;
21110;SDS011;10713;51.912;4.494;2023-07-30T09:30:21;6.70;;;1.38;;
21110;SDS011;10713;51.912;4.494;2023-07-30T09:32:50;7.72;;;1.65;;
21110;SDS011;10713;51.912;4.494;2023-07-30T09:35:16;6.15;;;1.23;;
21110;SDS011;10713;51.912;4.494;2023-07-30T09:37:42;7.57;;;1.40;;
21110;SDS011;10713;51.912;4.494;2023-07-30T09:40:09;18.00;;;2.17;;
21110;SDS011;10713;51.912;4.494;2023-07-30T09:42:37;16.15;;;1.60;;
21110;SDS011;10713;51.912;4.494;2023-07-30T09:45:04;6.68;;;1.52;;
21110;SDS011;10713;51.912;4.494;2023-07-30T09:47:44;10.13;;;1.58;;
21110;SDS011;10713;51.912;4.494;2023-07-30T09:50:11;5.28;;;1.30;;
21110;SDS011;10713;51.912;4.494;2023-07-30T09:52:37;7.38;;;1.27;;
21110;SDS011;10713;51.912;4.494;2023-07-30T09:55:02;7.55;;;1.38;;
21110;SDS011;10713;51.912;4.494;2023-07-30T09:57:32;6.07;;;1.00;;
21110;SDS011;10713;51.912;4.494;2023-07-30T09:59:57;7.00;;;1.15;;
21110;SDS011;10713;51.912;4.494;2023-07-30T10:02:23;6.28;;;1.25;;
21110;SDS011;10713;51.912;4.494;2023-07-30T10:04:49;3.05;;;1.00;;
21110;SDS011;10713;51.912;4.494;2023-07-30T10:07:19;6.28;;;1.60;;
21110;SDS011;10713;51.912;4.494;2023-07-30T10:09:47;4.93;;;1.30;;
21110;SDS011;10713;51.912;4.494;2023-07-30T10:12:16;6.72;;;1.00;;
21110;SDS011;10713;51.912;4.494;2023-07-30T10:14:43;5.40;;;1.30;;
21110;SDS011;10713;51.912;4.494;2023-07-30T10:17:09;5.10;;;0.88;;
21110;SDS011;10713;51.912;4.494;2023-07-30T10:19:35;5.15;;;1.33;;
21110;SDS011;10713;51.912;4.494;2023-07-30T10:22:19;6.13;;;1.40;;
21110;SDS011;10713;51.912;4.494;2023-07-30T10:27:26;5.00;;;1.50;;
21110;SDS011;10713;51.912;4.494;2023-07-30T10:30:10;10.38;;;1.60;;
21110;SDS011;10713;51.912;4.494;2023-07-30T10:32:42;14.10;;;1.20;;
21110;SDS011;10713;51.912;4.494;2023-07-30T10:38:27;7.43;;;1.40;;
21110;SDS011;10713;51.912;4.494;2023-07-30T10:41:04;5.85;;;1.45;;
21110;SDS011;10713;51.912;4.494;2023-07-30T10:43:34;17.90;;;2.58;;
21110;SDS011;10713;51.912;4.494;2023-07-30T10:46:04;8.98;;;1.58;;
21110;SDS011;10713;51.912;4.494;2023-07-30T10:48:30;5.28;;;1.55;;
21110;SDS011;10713;51.912;4.494;2023-07-30T10:50:57;8.45;;;1.60;;
21110;SDS011;10713;51.912;4.494;2023-07-30T10:53:24;7.38;;;1.38;;
21110;SDS011;10713;51.912;4.494;2023-07-30T10:55:49;5.78;;;1.15;;
21110;SDS011;10713;51.912;4.494;2023-07-30T10:58:14;4.72;;;1.33;;
21110;SDS011;10713;51.912;4.494;2023-07-30T11:00:41;8.30;;;1.33;;
21110;SDS011;10713;51.912;4.494;2023-07-30T11:03:06;11.68;;;1.40;;
21110;SDS011;10713;51.912;4.494;2023-07-30T11:05:32;5.45;;;1.27;;
21110;SDS011;10713;51.912;4.494;2023-07-30T11:07:57;9.65;;;1.23;;
21110;SDS011;10713;51.912;4.494;2023-07-30T11:10:22;3.35;;;0.90;;
21110;SDS011;10713;51.912;4.494;2023-07-30T11:12:48;7.55;;;1.40;;
21110;SDS011;10713;51.912;4.494;2023-07-30T11:15:17;4.78;;;1.08;;
21110;SDS011;10713;51.912;4.494;2023-07-30T11:17:42;5.07;;;1.25;;
21110;SDS011;10713;51.912;4.494;2023-07-30T11:20:21;2.95;;;0.90;;
21110;SDS011;10713;51.912;4.494;2023-07-30T11:22:47;5.45;;;1.00;;
21110;SDS011;10713;51.912;4.494;2023-07-30T11:25:16;4.25;;;0.98;;
21110;SDS011;10713;51.912;4.494;2023-07-30T11:27:49;5.35;;;1.20;;
21110;SDS011;10713;51.912;4.494;2023-07-30T11:30:15;5.00;;;1.17;;
21110;SDS011;10713;51.912;4.494;2023-07-30T11:32:44;5.28;;;1.00;;
21110;SDS011;10713;51.912;4.494;2023-07-30T11:35:10;6.38;;;1.42;;
21110;SDS011;10713;51.912;4.494;2023-07-30T11:37:36;8.13;;;1.85;;
21110;SDS011;10713;51.912;4.494;2023-07-30T11:40:06;4.70;;;1.10;;
21110;SDS011;10713;51.912;4.494;2023-07-30T11:42:38;5.13;;;1.05;;
21110;SDS011;10713;51.912;4.494;2023-07-30T11:45:20;7.60;;;1.50;;
21110;SDS011;10713;51.912;4.494;2023-07-30T11:47:47;4.13;;;1.50;;
21110;SDS011;10713;51.912;4.494;2023-07-30T11:50:12;4.47;;;1.33;;
21110;SDS011;10713;51.912;4.494;2023-07-30T11:52:53;6.65;;;0.93;;
21110;SDS011;10713;51.912;4.494;2023-07-30T11:55:20;4.05;;;1.10;;
21110;SDS011;10713;51.912;4.494;2023-07-30T11:57:45;6.53;;;1.70;;
21110;SDS011;10713;51.912;4.494;2023-07-30T12:00:11;4.65;;;0.90;;
21110;SDS011;10713;51.912;4.494;2023-07-30T12:02:37;5.50;;;0.90;;
21110;SDS011;10713;51.912;4.494;2023-07-30T12:05:03;10.27;;;1.20;;
21110;SDS011;10713;51.912;4.494;2023-07-30T12:07:29;4.75;;;0.85;;
21110;SDS011;10713;51.912;4.494;2023-07-30T12:10:10;5.60;;;1.23;;
21110;SDS011;10713;51.912;4.494;2023-07-30T12:12:43;3.10;;;1.00;;
21110;SDS011;10713;51.912;4.494;2023-07-30T12:15:17;5.10;;;1.10;;
21110;SDS011;10713;51.912;4.494;2023-07-30T12:17:42;2.70;;;1.05;;
21110;SDS011;10713;51.912;4.494;2023-07-30T12:20:08;3.65;;;1.10;;
21110;SDS011;10713;51.912;4.494;2023-07-30T12:22:34;3.03;;;0.70;;
21110;SDS011;10713;51.912;4.494;2023-07-30T12:25:00;4.43;;;1.08;;
21110;SDS011;10713;51.912;4.494;2023-07-30T12:27:27;4.60;;;1.13;;
21110;SDS011;10713;51.912;4.494;2023-07-30T12:29:52;4.30;;;0.90;;
21110;SDS011;10713;51.912;4.494;2023-07-30T12:32:18;2.53;;;0.73;;
21110;SDS011;10713;51.912;4.494;2023-07-30T12:34:43;2.95;;;0.60;;
21110;SDS011;10713;51.912;4.494;2023-07-30T12:37:09;2.55;;;1.27;;
21110;SDS011;10713;51.912;4.494;2023-07-30T12:39:34;6.22;;;1.20;;
21110;SDS011;10713;51.912;4.494;2023-07-30T12:42:00;4.72;;;0.80;;
21110;SDS011;10713;51.912;4.494;2023-07-30T12:44:25;4.88;;;1.00;;
21110;SDS011;10713;51.912;4.494;2023-07-30T12:46:50;6.43;;;1.30;;
21110;SDS011;10713;51.912;4.494;2023-07-30T12:49:15;6.55;;;1.00;;
21110;SDS011;10713;51.912;4.494;2023-07-30T12:51:41;5.10;;;1.13;;
21110;SDS011;10713;51.912;4.494;2023-07-30T12:54:06;5.35;;;1.33;;
21110;SDS011;10713;51.912;4.494;2023-07-30T12:56:31;8.85;;;1.10;;
21110;SDS011;10713;51.912;4.494;2023-07-30T12:58:57;4.25;;;1.00;;
21110;SDS011;10713;51.912;4.494;2023-07-30T13:01:22;6.75;;;1.42;;
21110;SDS011;10713;51.912;4.494;2023-07-30T13:03:48;4.38;;;1.10;;
21110;SDS011;10713;51.912;4.494;2023-07-30T13:06:15;5.35;;;1.10;;
21110;SDS011;10713;51.912;4.494;2023-07-30T13:08:40;6.07;;;1.13;;
21110;SDS011;10713;51.912;4.494;2023-07-30T13:11:06;4.95;;;1.40;;
21110;SDS011;10713;51.912;4.494;2023-07-30T13:13:31;5.90;;;1.17;;
21110;SDS011;10713;51.912;4.494;2023-07-30T13:15:56;6.60;;;1.23;;
21110;SDS011;10713;51.912;4.494;2023-07-30T13:18:23;6.82;;;1.08;;
21110;SDS011;10713;51.912;4.494;2023-07-30T13:20:48;9.77;;;1.70;;
21110;SDS011;10713;51.912;4.494;2023-07-30T13:23:14;3.38;;;1.00;;
21110;SDS011;10713;51.912;4.494;2023-07-30T13:25:40;5.22;;;1.90;;
21110;SDS011;10713;51.912;4.494;2023-07-30T13:28:05;6.00;;;1.30;;
21110;SDS011;10713;51.912;4.494;2023-07-30T13:30:31;7.80;;;1.45;;
21110;SDS011;10713;51.912;4.494;2023-07-30T13:32:56;9.95;;;1.40;;
21110;SDS011;10713;51.912;4.494;2023-07-30T13:35:21;8.02;;;1.50;;
21110;SDS011;10713;51.912;4.494;2023-07-30T13:37:47;8.30;;;1.20;;
21110;SDS011;10713;51.912;4.494;2023-07-30T13:40:12;5.30;;;1.50;;
21110;SDS011;10713;51.912;4.494;2023-07-30T13:42:37;6.55;;;1.48;;
21110;SDS011;10713;51.912;4.494;2023-07-30T13:45:03;6.93;;;1.60;;
21110;SDS011;10713;51.912;4.494;2023-07-30T13:47:29;6.53;;;1.27;;
21110;SDS011;10713;51.912;4.494;2023-07-30T13:49:54;8.02;;;1.83;;
21110;SDS011;10713;51.912;4.494;2023-07-30T13:52:20;9.40;;;1.63;;
21110;SDS011;10713;51.912;4.494;2023-07-30T13:54:45;10.52;;;1.33;;
21110;SDS011;10713;51.912;4.494;2023-07-30T13:57:10;7.63;;;1.67;;
21110;SDS011;10713;51.912;4.494;2023-07-30T13:59:36;6.43;;;1.55;;
21110;SDS011;10713;51.912;4.494;2023-07-30T14:02:02;8.00;;;1.45;;
21110;SDS011;10713;51.912;4.494;2023-07-30T14:04:27;5.30;;;1.50;;
21110;SDS011;10713;51.912;4.494;2023-07-30T14:06:53;8.50;;;1.42;;
21110;SDS011;10713;51.912;4.494;2023-07-30T14:09:18;9.88;;;2.00;;
21110;SDS011;10713;51.912;4.494;2023-07-30T14:11:43;6.22;;;2.00;;
21110;SDS011;10713;51.912;4.494;2023-07-30T14:14:11;6.07;;;1.40;;
21110;SDS011;10713;51.912;4.494;2023-07-30T14:16:37;7.32;;;1.77;;
21110;SDS011;10713;51.912;4.494;2023-07-30T14:19:02;10.15;;;1.92;;
21110;SDS011;10713;51.912;4.494;2023-07-30T14:21:28;7.70;;;1.58;;
21110;SDS011;10713;51.912;4.494;2023-07-30T14:23:53;9.40;;;1.60;;
21110;SDS011;10713;51.912;4.494;2023-07-30T14:26:18;10.57;;;1.73;;
21110;SDS011;10713;51.912;4.494;2023-07-30T14:28:44;11.27;;;1.83;;
21110;SDS011;10713;51.912;4.494;2023-07-30T14:31:09;8.30;;;1.75;;
21110;SDS011;10713;51.912;4.494;2023-07-30T14:33:35;18.55;;;2.60;;
21110;SDS011;10713;51.912;4.494;2023-07-30T14:36:01;7.65;;;1.63;;
21110;SDS011;10713;51.912;4.494;2023-07-30T14:38:28;11.70;;;2.28;;
21110;SDS011;10713;51.912;4.494;2023-07-30T14:40:53;6.22;;;1.40;;